Time;durP1;ratioP1;P1;durP2;ratioP2;P2;SDS_P1;SDS_P2;PMS_P1;PMS_P2;Temp;Humidity;BMP_temperature;BMP_pressure;BME280_temperature;BME280_humidity;BME280_pressure;Samples;Min_cycle;Max_cycle;Signal;HPM_P1;HPM_P2
2022/04/28 00:00:14;;;;;;;11.80;9.27;;;;;;;10.28;77.85;102232.19;5003890;28;20645;-53
2022/04/28 00:02:40;;;;;;;9.77;8.70;;;;;;;10.16;77.96;102237.13;5003716;28;20233;-53
2022/04/28 00:05:10;;;;;;;10.57;8.67;;;;;;;10.16;79.53;102229.25;5003946;28;20233;-52
2022/04/28 00:07:37;;;;;;;9.90;9.00;;;;;;;10.11;80.22;102236.09;5007026;28;20237;-53
2022/04/28 00:10:05;;;;;;;10.40;8.90;;;;;;;10.10;80.86;102231.69;5023722;28;20228;-53
2022/04/28 00:12:32;;;;;;;11.43;9.53;;;;;;;10.05;81.53;102234.22;5018520;28;20228;-52
2022/04/28 00:14:58;;;;;;;10.77;9.67;;;;;;;10.01;81.77;102238.50;5025064;28;20290;-53
2022/04/28 00:17:25;;;;;;;11.67;9.37;;;;;;;9.94;81.65;102238.31;5009332;28;20233;-52
2022/04/28 00:19:51;;;;;;;10.77;9.67;;;;;;;9.88;82.04;102236.41;5000748;28;20707;-53
2022/04/28 00:22:19;;;;;;;10.87;9.33;;;;;;;9.84;82.86;102234.56;5015606;28;20251;-53
2022/04/28 00:24:45;;;;;;;10.80;9.70;;;;;;;9.80;82.85;102222.22;5021560;28;20271;-52
2022/04/28 00:27:12;;;;;;;11.87;9.50;;;;;;;9.79;82.60;102231.81;5013140;28;20295;-53
2022/04/28 00:29:38;;;;;;;14.80;9.00;;;;;;;9.83;82.48;102232.78;5004430;28;20241;-52
2022/04/28 00:32:05;;;;;;;12.20;9.77;;;;;;;9.82;82.46;102236.25;5014068;28;20224;-54
2022/04/28 00:34:32;;;;;;;10.37;8.97;;;;;;;9.78;82.94;102234.38;5025120;28;20314;-53
2022/04/28 00:36:58;;;;;;;10.87;9.23;;;;;;;9.80;82.64;102244.09;5023865;28;20271;-53
2022/04/28 00:39:26;;;;;;;10.87;9.77;;;;;;;9.88;82.75;102240.78;5021778;28;20264;-53
2022/04/28 00:41:52;;;;;;;10.83;9.20;;;;;;;9.87;82.29;102236.38;5025299;28;20236;-52
2022/04/28 00:44:18;;;;;;;10.27;8.67;;;;;;;9.75;82.46;102236.94;5016907;28;21089;-52
2022/04/28 00:46:45;;;;;;;11.37;9.80;;;;;;;9.65;82.69;102232.28;5016420;28;20244;-53
2022/04/28 00:51:55;;;;;;;13.30;9.30;;;;;;;9.53;82.91;102233.72;5017383;28;20231;-53
2022/04/28 00:54:22;;;;;;;10.37;8.70;;;;;;;9.49;82.52;102242.38;5010035;28;20229;-52
2022/04/28 00:56:50;;;;;;;9.60;8.47;;;;;;;9.46;82.31;102242.28;5011834;28;20232;-53
2022/04/28 00:59:18;;;;;;;10.63;8.50;;;;;;;9.39;82.33;102240.31;5020491;28;20282;-52
2022/04/28 01:01:44;;;;;;;14.10;9.33;;;;;;;9.39;81.76;102245.56;5014029;28;20275;-52
2022/04/28 01:04:11;;;;;;;10.23;8.27;;;;;;;9.37;81.84;102256.84;5020040;28;20344;-54
2022/04/28 01:06:37;;;;;;;11.93;8.80;;;;;;;9.32;82.28;102261.97;5014255;28;20665;-52
2022/04/28 01:09:04;;;;;;;9.40;8.17;;;;;;;9.31;82.80;102258.47;5020095;28;20718;-52
2022/04/28 01:11:31;;;;;;;13.07;8.43;;;;;;;9.33;83.29;102263.72;5017601;28;20303;-53
2022/04/28 01:13:59;;;;;;;11.57;9.40;;;;;;;9.31;83.89;102262.81;5025454;28;20237;-58
2022/04/28 01:16:25;;;;;;;9.13;8.03;;;;;;;9.26;84.59;102262.66;5022291;28;20250;-52
2022/04/28 01:18:53;;;;;;;11.47;9.50;;;;;;;9.25;85.11;102260.91;5004821;28;20237;-52
2022/04/28 01:21:21;;;;;;;11.17;8.93;;;;;;;9.20;85.44;102262.50;4995161;28;20275;-52
2022/04/28 01:23:47;;;;;;;11.43;8.10;;;;;;;9.16;85.61;102268.50;5000493;28;20817;-52
2022/04/28 01:26:14;;;;;;;10.37;8.30;;;;;;;9.16;85.92;102267.59;5003812;28;20256;-53
2022/04/28 01:28:41;;;;;;;15.47;9.47;;;;;;;9.20;85.94;102259.91;4994417;28;20237;-52
2022/04/28 01:31:07;;;;;;;12.20;9.73;;;;;;;9.23;84.69;102269.56;5001619;28;20253;-51
2022/04/28 01:33:33;;;;;;;9.33;8.33;;;;;;;9.12;85.15;102266.63;5000702;28;20335;-53
2022/04/28 01:36:00;;;;;;;9.20;8.20;;;;;;;9.00;85.75;102266.28;5002336;28;20260;-54
2022/04/28 01:38:28;;;;;;;11.47;8.30;;;;;;;9.01;86.09;102271.53;4988801;28;20728;-54
2022/04/28 01:40:54;;;;;;;9.20;8.20;;;;;;;8.94;86.28;102272.19;4994873;28;20740;-52
2022/04/28 01:43:21;;;;;;;10.60;7.97;;;;;;;8.93;86.65;102273.06;4997841;28;20288;-52
2022/04/28 01:45:47;;;;;;;9.80;8.37;;;;;;;8.90;86.46;102275.56;4996004;28;20785;-54
2022/04/28 01:48:13;;;;;;;11.57;8.47;;;;;;;8.90;86.52;102269.44;5000919;28;20256;-51
2022/04/28 01:50:40;;;;;;;12.50;8.53;;;;;;;8.86;86.93;102268.47;4992812;28;20483;-53
2022/04/28 01:55:52;;;;;;;9.23;8.30;;;;;;;8.89;86.54;102268.56;4983439;28;20312;-52
2022/04/28 01:58:19;;;;;;;8.43;6.83;;;;;;;8.90;86.25;102272.94;4992236;28;20241;-53
2022/04/28 02:00:45;;;;;;;8.43;7.30;;;;;;;8.86;86.97;102272.81;4997106;28;20723;-53
2022/04/28 02:03:12;;;;;;;8.53;7.63;;;;;;;8.83;87.17;102278.84;4997923;28;20613;-54
2022/04/28 02:05:38;;;;;;;9.03;8.03;;;;;;;8.82;86.91;102274.47;5001445;28;20248;-52
2022/04/28 02:08:05;;;;;;;10.00;7.53;;;;;;;8.79;86.70;102270.00;4991619;28;20238;-52
2022/04/28 02:10:32;;;;;;;10.63;8.27;;;;;;;8.78;86.76;102273.47;4995168;28;20611;-53
2022/04/28 02:12:59;;;;;;;8.73;7.07;;;;;;;8.76;86.54;102271.63;5005834;28;20283;-57
2022/04/28 02:15:26;;;;;;;8.23;7.30;;;;;;;8.76;86.38;102266.41;4996519;28;20716;-55
2022/04/28 02:17:52;;;;;;;10.13;7.13;;;;;;;8.75;85.85;102270.75;4991447;28;20237;-52
2022/04/28 02:20:19;;;;;;;9.80;7.67;;;;;;;8.73;86.43;102266.31;5003460;28;20264;-51
2022/04/28 02:22:45;;;;;;;11.33;7.63;;;;;;;8.63;86.70;102269.47;5006917;28;20241;-52
2022/04/28 02:25:12;;;;;;;8.30;7.50;;;;;;;8.63;87.08;102259.00;5006897;28;20291;-52
2022/04/28 02:27:38;;;;;;;11.17;8.10;;;;;;;8.58;86.96;102259.75;5005575;28;20252;-53
2022/04/28 02:30:07;;;;;;;9.13;8.17;;;;;;;8.62;86.61;102267.69;4998356;28;20249;-52
2022/04/28 02:35:14;;;;;;;8.50;7.57;;;;;;;8.53;87.15;102270.91;5001707;28;20237;-52
2022/04/28 02:37:40;;;;;;;12.77;8.03;;;;;;;8.46;87.74;102272.47;4999517;28;20667;-53
2022/04/28 02:40:08;;;;;;;10.43;8.63;;;;;;;8.38;87.93;102270.41;5002689;28;20712;-51
2022/04/28 02:42:34;;;;;;;9.00;7.53;;;;;;;8.31;88.03;102267.56;4996575;28;20315;-52
2022/04/28 02:45:01;;;;;;;7.97;7.17;;;;;;;8.32;87.57;102264.13;4999553;28;20237;-52
2022/04/28 02:47:29;;;;;;;9.17;7.73;;;;;;;8.32;87.05;102260.63;4993394;28;20238;-53
2022/04/28 02:49:55;;;;;;;7.77;7.00;;;;;;;8.25;87.18;102261.22;4987554;28;20307;-53
2022/04/28 02:52:21;;;;;;;9.50;7.07;;;;;;;8.23;87.31;102262.91;4997367;28;20803;-53
2022/04/28 02:54:48;;;;;;;9.50;7.67;;;;;;;8.23;87.50;102265.53;4998935;28;20228;-52
2022/04/28 02:57:14;;;;;;;7.80;7.00;;;;;;;8.21;88.13;102264.59;4996488;28;20652;-53
2022/04/28 02:59:40;;;;;;;7.47;6.70;;;;;;;8.20;88.68;102265.44;4996236;28;20261;-52
2022/04/28 03:02:07;;;;;;;10.17;7.53;;;;;;;8.28;88.34;102267.47;4990690;28;20250;-52
2022/04/28 03:04:34;;;;;;;8.17;7.37;;;;;;;8.19;88.84;102255.81;4997066;28;20310;-51
2022/04/28 03:12:28;;;;;;;10.90;8.73;;;;;;;8.15;88.48;102272.25;5001333;28;20236;-54
2022/04/28 03:14:55;;;;;;;10.47;8.23;;;;;;;8.16;89.13;102274.03;5000227;28;20675;-52
2022/04/28 03:17:21;;;;;;;9.50;8.30;;;;;;;8.08;89.56;102271.16;4996612;28;20254;-54
2022/04/28 03:19:49;;;;;;;9.33;7.63;;;;;;;8.03;89.77;102276.22;4996364;28;20268;-54
2022/04/28 03:22:15;;;;;;;9.07;7.63;;;;;;;7.98;90.39;102274.28;4997642;28;20249;-52
2022/04/28 03:24:42;;;;;;;10.30;7.57;;;;;;;7.88;90.92;102270.47;4987756;28;20284;-52
2022/04/28 03:27:08;;;;;;;11.13;8.07;;;;;;;7.83;91.59;102279.88;4993824;28;20249;-52
2022/04/28 03:29:37;;;;;;;8.00;7.30;;;;;;;7.80;91.65;102272.81;4995104;28;20324;-53
2022/04/28 03:32:08;;;;;;;9.10;8.07;;;;;;;7.82;91.90;102275.47;4991891;28;20233;-53
2022/04/28 03:34:35;;;;;;;8.20;7.40;;;;;;;7.83;92.07;102277.28;4991950;28;20244;-52
2022/04/28 03:37:03;;;;;;;10.07;7.67;;;;;;;7.81;92.24;102281.53;4996551;28;20323;-53
2022/04/28 03:39:29;;;;;;;9.90;7.73;;;;;;;7.78;92.56;102276.19;4995218;28;20299;-54
2022/04/28 03:41:56;;;;;;;8.93;7.37;;;;;;;7.73;92.80;102283.00;4998808;28;20237;-53
2022/04/28 03:44:22;;;;;;;11.40;7.33;;;;;;;7.70;92.66;102283.78;4995155;28;20261;-53
2022/04/28 03:46:49;;;;;;;8.87;7.53;;;;;;;7.67;92.85;102285.41;4986176;28;20240;-54
2022/04/28 03:49:15;;;;;;;10.10;7.23;;;;;;;7.64;92.60;102291.38;4980933;28;20311;-53
2022/04/28 03:51:41;;;;;;;10.83;9.40;;;;;;;7.69;92.07;102296.78;4986336;28;20265;-52
2022/04/28 03:54:09;;;;;;;13.97;7.57;;;;;;;7.62;91.79;102299.19;4995387;28;20229;-52
2022/04/28 03:56:35;;;;;;;9.00;7.90;;;;;;;7.68;91.47;102295.00;4985751;28;20265;-54
2022/04/28 03:59:03;;;;;;;8.37;7.57;;;;;;;7.68;91.31;102308.06;4992455;28;20255;-53
2022/04/28 04:01:29;;;;;;;9.17;8.27;;;;;;;7.62;91.31;102299.19;5001224;28;20239;-53
2022/04/28 04:03:56;;;;;;;11.10;8.57;;;;;;;7.59;91.88;102304.31;4981861;28;20597;-53
2022/04/28 04:06:22;;;;;;;9.37;8.10;;;;;;;7.55;91.63;102302.41;4986644;28;20245;-53
2022/04/28 04:08:49;;;;;;;10.30;7.87;;;;;;;7.59;91.84;102303.41;4975909;28;20274;-52
2022/04/28 04:11:17;;;;;;;13.80;8.37;;;;;;;7.59;90.93;102306.03;4987432;28;20263;-53
2022/04/28 04:13:43;;;;;;;9.40;8.50;;;;;;;7.56;90.76;102304.19;4990777;28;20265;-54
2022/04/28 04:16:11;;;;;;;10.37;9.27;;;;;;;7.60;90.98;102310.41;5005899;28;20236;-54
2022/04/28 04:18:38;;;;;;;11.37;8.83;;;;;;;7.63;90.80;102313.16;4989550;28;21048;-53
2022/04/28 04:21:04;;;;;;;11.53;8.27;;;;;;;7.59;91.19;102309.53;4986439;28;20234;-52
2022/04/28 04:23:32;;;;;;;10.37;8.20;;;;;;;7.50;91.08;102310.91;4986096;28;20249;-53
2022/04/28 04:25:58;;;;;;;9.13;7.90;;;;;;;7.51;92.05;102320.53;4985704;28;20237;-52
2022/04/28 04:28:26;;;;;;;12.13;8.73;;;;;;;7.51;91.54;102318.81;4999334;28;20233;-52
2022/04/28 04:33:36;;;;;;;9.97;8.80;;;;;;;7.50;91.44;102322.25;4985702;28;20249;-53
2022/04/28 04:36:03;;;;;;;10.03;8.27;;;;;;;7.50;91.58;102324.88;4986299;28;20884;-53
2022/04/28 04:38:30;;;;;;;9.43;8.40;;;;;;;7.59;91.63;102333.06;4986448;28;20237;-53
2022/04/28 04:40:56;;;;;;;9.77;8.73;;;;;;;7.55;91.61;102333.78;5004900;28;20687;-53
2022/04/28 04:43:22;;;;;;;10.40;9.30;;;;;;;7.60;92.05;102329.59;5001666;28;20715;-53
2022/04/28 04:45:50;;;;;;;9.83;8.20;;;;;;;7.58;92.38;102331.28;5001585;28;20249;-52
2022/04/28 04:48:16;;;;;;;9.27;8.20;;;;;;;7.55;92.57;102327.66;4988762;28;20229;-52
2022/04/28 04:50:43;;;;;;;12.53;8.07;;;;;;;7.61;92.63;102331.38;4986577;28;20300;-53
2022/04/28 04:53:09;;;;;;;11.87;8.57;;;;;;;7.72;92.24;102331.78;4997106;28;20252;-55
2022/04/28 04:55:37;;;;;;;11.17;9.03;;;;;;;7.75;91.67;102338.84;4996946;28;20785;-53
2022/04/28 04:58:04;;;;;;;10.33;8.87;;;;;;;7.76;91.54;102353.72;4988535;28;20755;-55
2022/04/28 05:00:30;;;;;;;10.97;8.93;;;;;;;7.81;90.76;102346.91;4996376;28;20264;-54
2022/04/28 05:02:58;;;;;;;9.53;8.03;;;;;;;7.77;90.32;102350.25;5007486;28;20240;-53
2022/04/28 05:05:24;;;;;;;11.60;8.60;;;;;;;7.80;90.36;102348.63;4986842;28;20695;-53
2022/04/28 05:07:50;;;;;;;11.07;9.83;;;;;;;7.82;89.90;102346.06;4993202;28;20233;-52
2022/04/28 05:10:19;;;;;;;12.17;8.47;;;;;;;7.88;89.42;102352.41;4994131;28;20862;-52
2022/04/28 05:12:45;;;;;;;10.57;7.97;;;;;;;7.84;89.61;102347.03;4991864;28;20237;-54
2022/04/28 05:15:12;;;;;;;10.67;9.20;;;;;;;7.84;89.65;102350.53;4999454;28;20840;-57
2022/04/28 05:17:38;;;;;;;10.03;9.03;;;;;;;7.87;89.68;102353.25;4995850;28;20241;-51
2022/04/28 05:20:08;;;;;;;10.20;8.63;;;;;;;7.92;89.32;102350.78;5003772;28;20225;-53
2022/04/28 05:22:34;;;;;;;9.80;8.67;;;;;;;7.96;89.87;102357.91;5006038;28;20245;-54
2022/04/28 05:25:01;;;;;;;10.70;8.50;;;;;;;8.07;89.72;102358.28;5002866;28;20763;-53
2022/04/28 05:27:27;;;;;;;10.30;8.77;;;;;;;8.17;88.66;102356.88;5000609;28;20280;-53
2022/04/28 05:29:54;;;;;;;11.97;9.53;;;;;;;8.22;88.52;102360.56;4991762;28;20652;-53
2022/04/28 05:32:20;;;;;;;9.73;8.73;;;;;;;8.30;87.63;102372.19;4992667;28;21039;-53
2022/04/28 05:34:46;;;;;;;12.90;9.93;;;;;;;8.50;86.52;102368.56;4992186;28;20303;-53
2022/04/28 05:37:15;;;;;;;11.90;9.23;;;;;;;8.55;84.82;102371.31;4984686;28;20230;-52
2022/04/28 05:39:42;;;;;;;12.17;9.27;;;;;;;8.60;84.91;102369.78;4984020;28;20238;-52
2022/04/28 05:42:09;;;;;;;12.80;9.47;;;;;;;8.54;85.12;102374.78;4985505;28;20233;-51
2022/04/28 05:47:20;;;;;;;10.73;9.30;;;;;;;8.62;85.38;102375.03;4979923;28;20252;-52
2022/04/28 05:49:46;;;;;;;10.00;8.50;;;;;;;8.63;85.27;102374.19;4976928;28;20294;-52
2022/04/28 05:52:14;;;;;;;10.23;8.60;;;;;;;8.66;85.30;102377.81;4991801;28;20284;-52
2022/04/28 05:54:40;;;;;;;11.30;8.73;;;;;;;8.76;84.76;102377.28;4988641;28;20305;-52
2022/04/28 05:57:07;;;;;;;14.43;9.23;;;;;;;8.76;84.66;102379.00;4987389;28;20301;-52
2022/04/28 05:59:33;;;;;;;10.20;8.53;;;;;;;8.86;83.97;102378.47;4989181;28;20233;-53
2022/04/28 06:02:02;;;;;;;10.67;9.23;;;;;;;8.92;83.87;102389.16;5003788;28;20308;-56
2022/04/28 06:04:28;;;;;;;8.93;8.03;;;;;;;8.94;84.12;102383.94;4996539;28;20669;-53
2022/04/28 06:06:55;;;;;;;11.10;9.97;;;;;;;9.02;83.64;102386.00;4988028;28;20253;-53
2022/04/28 06:09:22;;;;;;;9.87;8.47;;;;;;;9.12;83.33;102394.13;4990807;28;20229;-52
2022/04/28 06:11:48;;;;;;;7.97;7.17;;;;;;;9.15;82.71;102395.09;5002255;28;20241;-52
2022/04/28 06:14:15;;;;;;;9.50;8.20;;;;;;;9.28;81.55;102396.38;5008506;28;20225;-53
2022/04/28 06:16:41;;;;;;;8.93;7.73;;;;;;;9.37;80.74;102391.44;5008115;28;20264;-54
2022/04/28 06:19:08;;;;;;;12.57;9.27;;;;;;;9.48;80.25;102402.25;5000029;28;20233;-52
2022/04/28 06:21:35;;;;;;;11.03;8.73;;;;;;;9.47;79.67;102396.09;5004486;28;20720;-53
2022/04/28 06:24:01;;;;;;;14.13;8.63;;;;;;;9.55;79.98;102405.09;4999068;28;20261;-53
2022/04/28 06:26:29;;;;;;;14.63;10.27;;;;;;;9.64;79.09;102414.06;4988081;28;20744;-53
2022/04/28 06:28:55;;;;;;;11.03;8.83;;;;;;;9.74;78.13;102401.28;4997107;28;20242;-52
2022/04/28 06:31:22;;;;;;;8.40;7.53;;;;;;;9.75;78.72;102407.41;4987368;28;20771;-52
2022/04/28 06:33:48;;;;;;;9.87;8.10;;;;;;;9.75;78.37;102408.28;4987926;28;20237;-54
2022/04/28 06:36:14;;;;;;;10.00;8.97;;;;;;;9.77;78.93;102410.97;4987188;28;20289;-51
2022/04/28 06:38:41;;;;;;;9.70;8.70;;;;;;;9.85;78.65;102405.94;4999320;28;20232;-53
2022/04/28 06:41:07;;;;;;;10.83;8.43;;;;;;;9.93;78.30;102415.84;4997760;28;20260;-53
2022/04/28 06:43:37;;;;;;;9.87;8.67;;;;;;;10.11;77.37;102412.84;4997659;28;20700;-52
2022/04/28 06:46:13;;;;;;;10.40;9.23;;;;;;;10.14;77.31;102412.91;4992743;28;20237;-53
2022/04/28 06:48:39;;;;;;;10.30;8.37;;;;;;;10.13;77.37;102411.13;5005771;28;20657;-53
2022/04/28 06:51:05;;;;;;;12.17;8.43;;;;;;;10.22;77.83;102415.75;4997446;28;20241;-52
2022/04/28 06:53:32;;;;;;;12.17;8.57;;;;;;;10.24;77.19;102416.66;4987541;28;20230;-53
2022/04/28 06:55:58;;;;;;;8.43;7.57;;;;;;;10.31;77.27;102418.66;4997234;28;20233;-52
2022/04/28 06:58:25;;;;;;;11.03;8.53;;;;;;;10.31;77.29;102413.41;5000914;28;20608;-52
2022/04/28 07:00:53;;;;;;;11.93;7.80;;;;;;;10.36;77.40;102416.16;4997598;28;20237;-52
2022/04/28 07:03:20;;;;;;;9.90;8.60;;;;;;;10.42;77.04;102408.44;5003048;28;20260;-53
2022/04/28 07:05:47;;;;;;;11.63;8.10;;;;;;;10.56;76.96;102417.56;4988946;28;20241;-53
2022/04/28 07:08:13;;;;;;;10.10;8.97;;;;;;;10.66;75.84;102414.31;5005706;28;20225;-52
2022/04/28 07:10:40;;;;;;;9.03;7.63;;;;;;;10.74;75.77;102411.91;5003669;28;20282;-52
2022/04/28 07:13:06;;;;;;;12.20;8.07;;;;;;;10.98;74.14;102417.75;4995111;28;20699;-54
2022/04/28 07:15:34;;;;;;;10.93;8.17;;;;;;;11.11;72.25;102413.69;5005528;28;20236;-52
2022/04/28 07:18:03;;;;;;;10.67;7.13;;;;;;;11.21;71.97;102407.81;4998534;28;20237;-55
2022/04/28 07:20:30;;;;;;;15.37;7.30;;;;;;;11.30;71.67;102415.03;4998648;28;20253;-54
2022/04/28 07:22:59;;;;;;;7.73;5.67;;;;;;;11.40;71.63;102411.72;5003628;28;20721;-55
2022/04/28 07:25:25;;;;;;;7.70;6.97;;;;;;;11.53;70.65;102414.66;4999860;28;20233;-54
2022/04/28 07:27:52;;;;;;;9.40;8.38;;;;;;;11.73;69.12;102425.63;4998050;28;20781;-53
2022/04/28 07:30:20;;;;;;;13.85;7.15;;;;;;;11.79;68.33;102423.09;4994399;28;20261;-53
2022/04/28 07:32:47;;;;;;;8.73;6.32;;;;;;;11.93;66.79;102419.94;4989967;28;20292;-53
2022/04/28 07:35:18;;;;;;;7.18;6.25;;;;;;;11.98;65.93;102432.31;4985981;28;20242;-54
2022/04/28 07:37:45;;;;;;;10.68;7.20;;;;;;;11.90;66.09;102427.78;4987960;28;20234;-54
2022/04/28 07:40:11;;;;;;;6.72;6.07;;;;;;;11.88;66.57;102432.09;4984515;28;20232;-53
2022/04/28 07:42:40;;;;;;;7.57;5.95;;;;;;;11.87;67.59;102430.34;4982155;28;20350;-53
2022/04/28 07:45:07;;;;;;;6.28;5.68;;;;;;;11.98;66.94;102437.56;4987260;28;20790;-52
2022/04/28 07:47:33;;;;;;;9.52;6.88;;;;;;;12.08;66.27;102429.00;4983906;28;20253;-53
2022/04/28 07:50:00;;;;;;;7.20;5.15;;;;;;;12.14;66.06;102427.38;4988087;28;20230;-55
2022/04/28 07:52:28;;;;;;;8.43;6.03;;;;;;;12.25;65.34;102424.03;5006609;28;20229;-55
2022/04/28 07:54:54;;;;;;;8.02;6.13;;;;;;;12.29;64.34;102426.78;5019410;28;20238;-54
2022/04/28 07:57:22;;;;;;;5.63;5.03;;;;;;;12.43;64.53;102426.16;5015225;28;20226;-54
2022/04/28 07:59:49;;;;;;;10.32;5.85;;;;;;;12.59;63.75;102428.19;5011761;28;20234;-53
2022/04/28 08:02:15;;;;;;;6.22;5.40;;;;;;;12.74;63.64;102428.50;4993744;28;20331;-53
2022/04/28 08:04:42;;;;;;;6.93;5.82;;;;;;;13.02;61.99;102423.66;5001565;28;20245;-53
2022/04/28 08:07:09;;;;;;;7.00;4.82;;;;;;;13.07;61.13;102428.16;4998255;28;20234;-53
2022/04/28 08:09:36;;;;;;;7.10;4.68;;;;;;;13.19;60.83;102424.81;4988614;28;20321;-53
2022/04/28 08:12:03;;;;;;;6.65;4.78;;;;;;;13.41;59.68;102427.78;4998334;28;20239;-54
2022/04/28 08:14:30;;;;;;;10.00;4.28;;;;;;;13.60;58.99;102432.47;4985172;28;20277;-53
2022/04/28 08:16:57;;;;;;;5.40;4.55;;;;;;;13.75;57.36;102432.69;4992623;28;20230;-53
2022/04/28 08:19:23;;;;;;;9.65;5.00;;;;;;;13.85;56.96;102431.06;4999167;28;20723;-53
2022/04/28 08:21:50;;;;;;;5.95;4.35;;;;;;;13.97;55.74;102436.50;4996561;28;20610;-53
2022/04/28 08:24:17;;;;;;;6.05;4.68;;;;;;;14.14;55.58;102433.16;4995792;28;20257;-55
2022/04/28 08:26:45;;;;;;;6.28;5.00;;;;;;;14.38;53.42;102432.53;4997165;28;20319;-54
2022/04/28 08:29:11;;;;;;;5.60;4.13;;;;;;;14.60;53.30;102426.66;4996915;28;20230;-53
2022/04/28 08:31:43;;;;;;;10.52;5.75;;;;;;;14.78;52.56;102429.47;4989141;28;20241;-53
2022/04/28 08:34:10;;;;;;;9.77;5.88;;;;;;;15.04;52.67;102428.78;5001871;28;20233;-53
2022/04/28 08:36:37;;;;;;;7.10;5.75;;;;;;;15.16;52.00;102425.34;4998956;28;20743;-53
2022/04/28 08:39:04;;;;;;;11.05;5.72;;;;;;;15.14;51.34;102427.97;4993161;28;20260;-52
2022/04/28 08:41:32;;;;;;;9.32;5.55;;;;;;;15.10;52.60;102426.19;4997535;28;20600;-52
2022/04/28 08:44:00;;;;;;;9.65;5.72;;;;;;;15.25;51.24;102436.88;4989358;28;20645;-51
2022/04/28 08:49:13;;;;;;;8.77;6.13;;;;;;;15.60;49.31;102432.69;4998974;28;20302;-51
2022/04/28 08:51:40;;;;;;;7.97;5.53;;;;;;;15.63;48.20;102428.28;4998109;28;20712;-51
2022/04/28 08:54:06;;;;;;;7.32;5.15;;;;;;;15.59;48.98;102428.28;4988677;28;20250;-52
2022/04/28 08:56:33;;;;;;;7.00;4.45;;;;;;;15.68;48.66;102431.84;4996428;28;20241;-55
2022/04/28 08:59:01;;;;;;;8.80;5.13;;;;;;;15.75;48.56;102427.47;4986852;28;20762;-51
2022/04/28 09:01:28;;;;;;;11.25;5.30;;;;;;;15.75;48.42;102433.66;4998013;28;20507;-51
2022/04/28 09:03:55;;;;;;;6.05;5.05;;;;;;;15.90;47.16;102434.59;5003882;28;20236;-50
2022/04/28 09:06:22;;;;;;;9.35;5.25;;;;;;;16.10;47.59;102435.56;5000380;28;20441;-51
2022/04/28 09:08:50;;;;;;;5.95;5.03;;;;;;;16.29;45.97;102427.69;5000722;28;20369;-51
2022/04/28 09:11:18;;;;;;;6.22;5.63;;;;;;;16.47;45.36;102427.72;5005347;28;20233;-52
2022/04/28 09:16:37;;;;;;;8.82;6.18;;;;;;;16.56;44.61;102429.50;4993420;28;20742;-52
2022/04/28 09:19:04;;;;;;;9.23;5.82;;;;;;;16.73;44.67;102429.53;4996473;28;20291;-52
2022/04/28 09:21:33;;;;;;;6.15;5.03;;;;;;;16.46;45.40;102433.91;4996296;28;20253;-51
2022/04/28 09:24:00;;;;;;;6.53;5.38;;;;;;;16.12;46.92;102435.59;4992013;28;20276;-52
2022/04/28 09:26:27;;;;;;;5.15;4.68;;;;;;;16.04;46.79;102432.94;4994797;28;20653;-51
2022/04/28 09:28:54;;;;;;;7.95;5.32;;;;;;;16.10;45.08;102432.94;4988912;28;20243;-50
2022/04/28 09:31:23;;;;;;;8.90;6.07;;;;;;;16.32;43.63;102436.53;4990509;28;20242;-51
2022/04/28 09:33:50;;;;;;;7.90;6.40;;;;;;;16.05;42.25;102432.03;4986433;28;20624;-52
2022/04/28 09:36:18;;;;;;;7.70;5.65;;;;;;;15.73;43.37;102439.84;5001969;28;20244;-54
2022/04/28 09:38:44;;;;;;;6.38;4.70;;;;;;;15.60;44.12;102433.56;5002538;28;20283;-51
2022/04/28 09:43:56;;;;;;;5.57;4.45;;;;;;;15.70;44.54;102430.13;4992148;28;20718;-51
2022/04/28 09:46:23;;;;;;;5.85;4.50;;;;;;;15.85;45.56;102431.06;4982546;28;20322;-52
2022/04/28 09:48:52;;;;;;;10.00;5.82;;;;;;;16.08;44.26;102429.41;4988655;28;20751;-53
2022/04/28 09:51:21;;;;;;;7.97;5.15;;;;;;;15.86;45.27;102428.41;4996183;28;20247;-51
2022/04/28 09:53:49;;;;;;;8.40;5.20;;;;;;;15.36;45.86;102425.47;4984822;28;20269;-53
2022/04/28 09:56:17;;;;;;;6.38;5.07;;;;;;;15.24;47.11;102435.09;5003126;28;20668;-54
2022/04/28 09:58:43;;;;;;;8.73;5.00;;;;;;;14.73;48.38;102425.00;4986367;28;20292;-54
2022/04/28 10:01:10;;;;;;;5.38;4.85;;;;;;;14.66;49.32;102429.34;4997276;28;20255;-50
2022/04/28 10:03:40;;;;;;;6.57;5.05;;;;;;;14.76;48.77;102425.91;4988078;28;20729;-54
2022/04/28 10:06:08;;;;;;;7.82;5.80;;;;;;;14.56;48.32;102427.47;4998209;28;20299;-52
2022/04/28 10:08:35;;;;;;;8.43;5.30;;;;;;;14.42;48.76;102434.34;4988480;28;20260;-53
2022/04/28 10:11:03;;;;;;;9.05;5.32;;;;;;;14.48;48.44;102431.78;4992287;28;20601;-53
2022/04/28 10:13:30;;;;;;;6.45;4.85;;;;;;;14.93;47.66;102431.34;4992192;28;20241;-51
2022/04/28 10:16:03;;;;;;;10.13;5.07;;;;;;;15.36;47.37;102423.72;5003454;28;20240;-51
2022/04/28 10:18:33;;;;;;;7.82;5.18;;;;;;;15.86;45.69;102424.88;4983398;28;20311;-53
2022/04/28 10:21:01;;;;;;;6.18;5.28;;;;;;;16.33;44.80;102429.47;4998811;28;20233;-51
2022/04/28 10:35:01;;;;;;;6.25;4.18;;;;;;;16.93;42.27;102439.28;5002560;28;20335;-52
2022/04/28 10:37:31;;;;;;;5.35;4.68;;;;;;;17.17;40.41;102438.41;5002405;28;20240;-52
2022/04/28 10:39:59;;;;;;;5.78;4.93;;;;;;;17.15;40.79;102437.50;4996559;28;20229;-52
2022/04/28 10:43:06;;;;;;;4.93;4.25;;;;;;;17.45;39.41;102438.34;4998881;28;20233;-52
2022/04/28 10:45:41;;;;;;;4.20;3.80;;;;;;;17.67;38.18;102432.97;4955382;28;20730;-51
2022/04/28 10:48:25;;;;;;;4.93;4.00;;;;;;;-145.23;100.00;58621.06;5004275;28;20235;-52
2022/04/28 10:51:12;;;;;;;6.40;4.63;;;;;;;-145.23;100.00;58621.06;5004072;28;20442;-51
2022/04/28 10:54:09;;;;;;;6.25;4.82;;;;;;;-145.23;100.00;58621.06;4994472;28;20229;-51
2022/04/28 10:57:06;;;;;;;7.63;5.22;;;;;;;17.79;37.73;102430.31;5000808;28;20251;-52
2022/04/28 10:59:38;;;;;;;6.85;5.65;;;;;;;17.57;40.11;102435.66;4959104;28;20232;-53
2022/04/28 11:02:51;;;;;;;11.35;5.15;;;;;;;17.82;40.48;102440.94;4990123;28;20309;-53
2022/04/28 11:05:35;;;;;;;6.55;5.38;;;;;;;18.24;38.78;102438.97;4990723;28;20257;-53
2022/04/28 11:08:02;;;;;;;5.32;4.82;;;;;;;18.16;38.62;102432.81;4989107;28;20230;-52
2022/04/28 11:10:29;;;;;;;8.40;5.03;;;;;;;18.26;37.98;102434.53;4982161;28;20245;-53
2022/04/28 11:12:57;;;;;;;8.10;5.80;;;;;;;18.20;38.06;102431.91;4989587;28;20240;-52
2022/04/28 11:15:25;;;;;;;5.13;4.50;;;;;;;18.59;37.86;102414.78;5003596;28;20892;-51
2022/04/28 11:17:51;;;;;;;8.75;7.07;;;;;;;18.69;37.00;102412.97;4996546;28;20234;-52
2022/04/28 11:20:21;;;;;;;8.52;4.82;;;;;;;19.08;35.98;102420.63;4999600;28;20229;-52
2022/04/28 11:22:50;;;;;;;7.40;4.88;;;;;;;19.46;35.26;102421.13;5003600;28;20440;-53
2022/04/28 11:25:18;;;;;;;6.10;4.28;;;;;;;19.22;34.65;102416.94;5003656;28;20240;-53
2022/04/28 11:27:48;;;;;;;6.45;4.03;;;;;;;19.30;100.00;102146.25;4998616;28;20244;-51
2022/04/28 11:30:17;;;;;;;6.57;4.13;;;;;;;-145.23;100.00;58621.06;5002764;28;20234;-52
2022/04/28 11:32:49;;;;;;;4.38;3.97;;;;;;;-145.23;100.00;58621.06;4988884;28;20273;-52
2022/04/28 11:35:16;;;;;;;5.80;3.80;;;;;;;-145.23;100.00;58621.06;5002342;28;20229;-52
2022/04/28 11:37:42;;;;;;;4.90;3.75;;;;;;;-145.23;100.00;58621.06;4995844;28;20787;-51
2022/04/28 11:40:13;;;;;;;6.60;3.38;;;;;;;-145.23;100.00;58621.06;4980147;28;20237;-52
2022/04/28 11:42:41;;;;;;;6.35;3.40;;;;;;;-145.23;100.00;58621.06;4985893;28;20226;-52
2022/04/28 11:45:08;;;;;;;6.47;4.38;;;;;;;-145.23;100.00;58621.06;4992940;28;20304;-52
2022/04/28 11:47:41;;;;;;;3.65;3.33;;;;;;;-145.23;100.00;58621.06;5000209;28;20320;-52
2022/04/28 11:50:08;;;;;;;6.47;3.65;;;;;;;-145.23;100.00;58621.06;4988810;28;20242;-55
2022/04/28 11:52:35;;;;;;;4.88;4.25;;;;;;;-145.23;100.00;58621.06;4999279;28;20245;-53
2022/04/28 11:55:05;;;;;;;8.32;4.35;;;;;;;-145.23;100.00;58621.06;5003598;28;20230;-52
2022/04/28 11:57:32;;;;;;;6.93;3.90;;;;;;;-145.23;100.00;58621.06;4998658;28;20222;-49
2022/04/28 11:59:59;;;;;;;6.25;3.58;;;;;;;-145.23;100.00;58621.06;4999127;28;20752;-51
2022/04/28 12:02:28;;;;;;;7.47;3.05;;;;;;;-145.23;100.00;58621.06;5007485;28;20299;-52
2022/04/28 12:04:56;;;;;;;4.78;3.15;;;;;;;-145.23;100.00;58621.06;5000757;28;20308;-53